^^
Station Historical Data
Daily Summary for March 21, 2017 Units:  Both    English   Metric
« Previous Day
Next Day »
Daily Weekly Monthly Yearly Custom
  High: Low: Average:
Temperature: 80.1 °F /  26.7 °C 58.8 °F /  14.9 °C 69.1 °F /  20.6 °C
Dew Point: 57.6 °F /  14.2 °C 51.6 °F /  10.9 °C 54.1 °F /  12.3 °C
Humidity: 85% 39% 61%
Wind Speed: 11.0mph /  17.7km/h - 1.7mph /  2.7km/h
Wind Gust: 13.0mph /  20.9km/h - -
Wind- - East
Pressure: 29.99 in /  1015.5 hPa 29.87 in /  1011.4 hPa -
Precipitation: 0.00 in /  0 mm    
Historical Graphs
 
 
Tabular Data for March 21, 2017
Time Temperature Dew Point Pressure Wind Wind Speed Wind Gust Humidity Rainfall Rate (Hourly) solar Conditions
00:03 64.8 °F /  18.2 °C 52.3 °F /  11.3 °C 29.99in /  1015.5hPa ESE 0.9mph /  1.4km/h 6.0mph /  9.7km/h 64% 0.00in /  0mm 0.0 W/m2
00:09 64.8 °F /  18.2 °C 52.3 °F /  11.3 °C 29.99in /  1015.5hPa East 4.0mph /  6.4km/h 7.0mph /  11.3km/h 64% 0.00in /  0mm 0.0 W/m2
00:15 64.8 °F /  18.2 °C 52.3 °F /  11.3 °C 29.98in /  1015.1hPa East 4.9mph /  7.9km/h 5.0mph /  8km/h 64% 0.00in /  0mm 0.0 W/m2
00:21 64.8 °F /  18.2 °C 52.3 °F /  11.3 °C 29.98in /  1015.1hPa Calm   5.0mph /  8km/h 64% 0.00in /  0mm 0.0 W/m2
00:27 64.8 °F /  18.2 °C 52.7 °F /  11.5 °C 29.98in /  1015.1hPa SE 0.9mph /  1.4km/h 3.0mph /  4.8km/h 65% 0.00in /  0mm 0.0 W/m2
00:33 64.6 °F /  18.1 °C 52.5 °F /  11.4 °C 29.98in /  1015.1hPa Calm   2.0mph /  3.2km/h 65% 0.00in /  0mm 0.0 W/m2
00:39 64.2 °F /  17.9 °C 52.7 °F /  11.5 °C 29.98in /  1015.1hPa East 2.9mph /  4.7km/h 5.0mph /  8km/h 66% 0.00in /  0mm 0.0 W/m2
00:45 64.0 °F /  17.8 °C 52.5 °F /  11.4 °C 29.98in /  1015.1hPa ESE 2.0mph /  3.2km/h 4.0mph /  6.4km/h 66% 0.00in /  0mm 0.0 W/m2
00:51 64.0 °F /  17.8 °C 52.9 °F /  11.6 °C 29.98in /  1015.1hPa Calm   4.0mph /  6.4km/h 67% 0.00in /  0mm 0.0 W/m2
00:57 64.0 °F /  17.8 °C 52.9 °F /  11.6 °C 29.98in /  1015.1hPa NE 0.9mph /  1.4km/h 6.0mph /  9.7km/h 67% 0.00in /  0mm 0.0 W/m2
01:03 64.2 °F /  17.9 °C 53.1 °F /  11.7 °C 29.98in /  1015.1hPa East 4.0mph /  6.4km/h 8.0mph /  12.9km/h 67% 0.00in /  0mm 0.0 W/m2
01:09 64.4 °F /  18 °C 52.9 °F /  11.6 °C 29.98in /  1015.1hPa ESE 4.0mph /  6.4km/h 7.0mph /  11.3km/h 66% 0.00in /  0mm 0.0 W/m2
01:15 64.6 °F /  18.1 °C 52.9 °F /  11.6 °C 29.98in /  1015.1hPa SE 0.9mph /  1.4km/h 4.0mph /  6.4km/h 66% 0.00in /  0mm 0.0 W/m2
01:21 64.4 °F /  18 °C 53.2 °F /  11.8 °C 29.97in /  1014.8hPa ENE 2.0mph /  3.2km/h 5.0mph /  8km/h 67% 0.00in /  0mm 0.0 W/m2
01:27 64.2 °F /  17.9 °C 53.1 °F /  11.7 °C 29.98in /  1015.1hPa SSE 0.9mph /  1.4km/h 10.0mph /  16.1km/h 67% 0.00in /  0mm 0.0 W/m2
01:33 64.2 °F /  17.9 °C 53.1 °F /  11.7 °C 29.97in /  1014.8hPa East 6.0mph /  9.7km/h 8.0mph /  12.9km/h 67% 0.00in /  0mm 0.0 W/m2
01:39 64.2 °F /  17.9 °C 53.1 °F /  11.7 °C 29.97in /  1014.8hPa Calm   8.0mph /  12.9km/h 67% 0.00in /  0mm 0.0 W/m2
01:47 64.2 °F /  17.9 °C 53.1 °F /  11.7 °C 29.97in /  1014.8hPa SSE 4.9mph /  7.9km/h 9.0mph /  14.5km/h 67% 0.00in /  0mm 0.0 W/m2
01:53 64.2 °F /  17.9 °C 52.7 °F /  11.5 °C 29.97in /  1014.8hPa SE 4.0mph /  6.4km/h 6.0mph /  9.7km/h 66% 0.00in /  0mm 0.0 W/m2
01:59 64.2 °F /  17.9 °C 52.7 °F /  11.5 °C 29.97in /  1014.8hPa East 6.0mph /  9.7km/h 6.0mph /  9.7km/h 66% 0.00in /  0mm 0.0 W/m2
02:05 64.2 °F /  17.9 °C 52.7 °F /  11.5 °C 29.97in /  1014.8hPa NE 2.0mph /  3.2km/h 8.0mph /  12.9km/h 66% 0.00in /  0mm 0.0 W/m2
02:11 64.2 °F /  17.9 °C 53.1 °F /  11.7 °C 29.97in /  1014.8hPa ENE 0.9mph /  1.4km/h 13.0mph /  20.9km/h 67% 0.00in /  0mm 0.0 W/m2
02:17 64.2 °F /  17.9 °C 53.1 °F /  11.7 °C 29.97in /  1014.8hPa NE 2.0mph /  3.2km/h 5.0mph /  8km/h 67% 0.00in /  0mm 0.0 W/m2
02:23 64.2 °F /  17.9 °C 53.1 °F /  11.7 °C 29.97in /  1014.8hPa East 6.0mph /  9.7km/h 10.0mph /  16.1km/h 67% 0.00in /  0mm 0.0 W/m2
02:29 64.0 °F /  17.8 °C 53.2 °F /  11.8 °C 29.96in /  1014.4hPa ENE 4.0mph /  6.4km/h 9.0mph /  14.5km/h 68% 0.00in /  0mm 0.0 W/m2
02:35 63.9 °F /  17.7 °C 53.1 °F /  11.7 °C 29.97in /  1014.8hPa ENE 2.9mph /  4.7km/h 9.0mph /  14.5km/h 68% 0.00in /  0mm 0.0 W/m2
02:41 63.9 °F /  17.7 °C 53.1 °F /  11.7 °C 29.97in /  1014.8hPa NE 2.0mph /  3.2km/h 6.0mph /  9.7km/h 68% 0.00in /  0mm 0.0 W/m2
02:47 63.9 °F /  17.7 °C 53.4 °F /  11.9 °C 29.97in /  1014.8hPa Calm   2.0mph /  3.2km/h 69% 0.00in /  0mm 0.0 W/m2
02:53 63.7 °F /  17.6 °C 53.2 °F /  11.8 °C 29.97in /  1014.8hPa NE 2.9mph /  4.7km/h 3.0mph /  4.8km/h 69% 0.00in /  0mm 0.0 W/m2
02:59 63.5 °F /  17.5 °C 53.6 °F /  12 °C 29.97in /  1014.8hPa NE 2.0mph /  3.2km/h 5.0mph /  8km/h 70% 0.00in /  0mm 0.0 W/m2
03:05 63.3 °F /  17.4 °C 53.4 °F /  11.9 °C 29.97in /  1014.8hPa ENE 0.9mph /  1.4km/h 5.0mph /  8km/h 70% 0.00in /  0mm 0.0 W/m2
03:11 63.3 °F /  17.4 °C 53.8 °F /  12.1 °C 29.97in /  1014.8hPa Calm   1.0mph /  1.6km/h 71% 0.00in /  0mm 0.0 W/m2
03:17 63.3 °F /  17.4 °C 53.8 °F /  12.1 °C 29.97in /  1014.8hPa NE 2.0mph /  3.2km/h 4.0mph /  6.4km/h 71% 0.00in /  0mm 0.0 W/m2
03:23 63.1 °F /  17.3 °C 53.6 °F /  12 °C 29.97in /  1014.8hPa ENE 6.0mph /  9.7km/h 7.0mph /  11.3km/h 71% 0.00in /  0mm 0.0 W/m2
03:29 63.1 °F /  17.3 °C 53.6 °F /  12 °C 29.96in /  1014.4hPa Calm     71% 0.00in /  0mm 0.0 W/m2
03:35 63.0 °F /  17.2 °C 53.8 °F /  12.1 °C 29.96in /  1014.4hPa NNE 2.0mph /  3.2km/h 4.0mph /  6.4km/h 72% 0.00in /  0mm 0.0 W/m2
03:41 62.8 °F /  17.1 °C 53.6 °F /  12 °C 29.96in /  1014.4hPa Calm   1.0mph /  1.6km/h 72% 0.00in /  0mm 0.0 W/m2
03:47 62.6 °F /  17 °C 53.4 °F /  11.9 °C 29.96in /  1014.4hPa Calm   3.0mph /  4.8km/h 72% 0.00in /  0mm 0.0 W/m2
03:53 62.4 °F /  16.9 °C 53.6 °F /  12 °C 29.96in /  1014.4hPa NNE 0.9mph /  1.4km/h 4.0mph /  6.4km/h 73% 0.00in /  0mm 0.0 W/m2
03:59 62.2 °F /  16.8 °C 53.8 °F /  12.1 °C 29.96in /  1014.4hPa Calm   3.0mph /  4.8km/h 74% 0.00in /  0mm 0.0 W/m2
04:05 62.1 °F /  16.7 °C 53.6 °F /  12 °C 29.96in /  1014.4hPa Calm   1.0mph /  1.6km/h 74% 0.00in /  0mm 0.0 W/m2
04:11 61.9 °F /  16.6 °C 53.4 °F /  11.9 °C 29.96in /  1014.4hPa Calm   4.0mph /  6.4km/h 74% 0.00in /  0mm 0.0 W/m2
04:17 61.7 °F /  16.5 °C 53.8 °F /  12.1 °C 29.96in /  1014.4hPa Calm   2.0mph /  3.2km/h 75% 0.00in /  0mm 0.0 W/m2
04:23 61.5 °F /  16.4 °C 53.6 °F /  12 °C 29.96in /  1014.4hPa Calm     75% 0.00in /  0mm 0.0 W/m2
04:29 61.3 °F /  16.3 °C 53.8 °F /  12.1 °C 29.96in /  1014.4hPa ENE 2.0mph /  3.2km/h 2.0mph /  3.2km/h 76% 0.00in /  0mm 0.0 W/m2
04:35 61.3 °F /  16.3 °C 53.8 °F /  12.1 °C 29.96in /  1014.4hPa Calm   1.0mph /  1.6km/h 76% 0.00in /  0mm 0.0 W/m2
04:41 61.2 °F /  16.2 °C 54.0 °F /  12.2 °C 29.96in /  1014.4hPa Calm   2.0mph /  3.2km/h 77% 0.00in /  0mm 0.0 W/m2
04:47 61.0 °F /  16.1 °C 53.8 °F /  12.1 °C 29.96in /  1014.4hPa NNE 0.9mph /  1.4km/h 1.0mph /  1.6km/h 77% 0.00in /  0mm 0.0 W/m2
04:53 61.0 °F /  16.1 °C 53.8 °F /  12.1 °C 29.96in /  1014.4hPa Calm     77% 0.00in /  0mm 0.0 W/m2
04:59 60.6 °F /  15.9 °C 53.8 °F /  12.1 °C 29.96in /  1014.4hPa Calm     78% 0.00in /  0mm 0.0 W/m2
05:05 60.4 °F /  15.8 °C 53.6 °F /  12 °C 29.96in /  1014.4hPa Calm   2.0mph /  3.2km/h 78% 0.00in /  0mm 0.0 W/m2
05:11 60.3 °F /  15.7 °C 53.8 °F /  12.1 °C 29.96in /  1014.4hPa Calm     79% 0.00in /  0mm 0.0 W/m2
05:17 60.1 °F /  15.6 °C 54.0 °F /  12.2 °C 29.96in /  1014.4hPa ENE 0.9mph /  1.4km/h 1.0mph /  1.6km/h 80% 0.00in /  0mm 0.0 W/m2
05:23 60.1 °F /  15.6 °C 54.0 °F /  12.2 °C 29.96in /  1014.4hPa Calm   2.0mph /  3.2km/h 80% 0.00in /  0mm 0.0 W/m2
05:29 60.1 °F /  15.6 °C 54.0 °F /  12.2 °C 29.96in /  1014.4hPa Calm   2.0mph /  3.2km/h 80% 0.00in /  0mm 0.0 W/m2
05:35 60.3 °F /  15.7 °C 54.1 °F /  12.3 °C 29.96in /  1014.4hPa Calm   3.0mph /  4.8km/h 80% 0.00in /  0mm 0.0 W/m2
05:41 60.1 °F /  15.6 °C 54.0 °F /  12.2 °C 29.96in /  1014.4hPa ENE 2.9mph /  4.7km/h 3.0mph /  4.8km/h 80% 0.00in /  0mm 0.0 W/m2
05:47 60.1 °F /  15.6 °C 54.3 °F /  12.4 °C 29.97in /  1014.8hPa Calm   4.0mph /  6.4km/h 81% 0.00in /  0mm 0.0 W/m2
05:53 60.1 °F /  15.6 °C 54.3 °F /  12.4 °C 29.97in /  1014.8hPa Calm   2.0mph /  3.2km/h 81% 0.00in /  0mm 0.0 W/m2
05:59 60.1 °F /  15.6 °C 54.3 °F /  12.4 °C 29.97in /  1014.8hPa Calm   1.0mph /  1.6km/h 81% 0.00in /  0mm 0.0 W/m2
06:05 59.7 °F /  15.4 °C 54.0 °F /  12.2 °C 29.97in /  1014.8hPa East 0.9mph /  1.4km/h 3.0mph /  4.8km/h 81% 0.00in /  0mm 0.0 W/m2
06:11 59.7 °F /  15.4 °C 54.1 °F /  12.3 °C 29.97in /  1014.8hPa Calm   1.0mph /  1.6km/h 82% 0.00in /  0mm 0.0 W/m2
06:18 59.5 °F /  15.3 °C 54.0 °F /  12.2 °C 29.97in /  1014.8hPa Calm   1.0mph /  1.6km/h 82% 0.00in /  0mm 0.0 W/m2
06:24 59.4 °F /  15.2 °C 54.1 °F /  12.3 °C 29.98in /  1015.1hPa East 0.9mph /  1.4km/h 4.0mph /  6.4km/h 83% 0.00in /  0mm 0.0 W/m2
06:30 59.4 °F /  15.2 °C 54.1 °F /  12.3 °C 29.97in /  1014.8hPa East 2.0mph /  3.2km/h 6.0mph /  9.7km/h 83% 0.00in /  0mm 0.0 W/m2
06:36 59.2 °F /  15.1 °C 54.0 °F /  12.2 °C 29.97in /  1014.8hPa Calm   2.0mph /  3.2km/h 83% 0.00in /  0mm 0.0 W/m2
06:42 59.2 °F /  15.1 °C 54.0 °F /  12.2 °C 29.97in /  1014.8hPa Calm   1.0mph /  1.6km/h 83% 0.00in /  0mm 0.0 W/m2
06:48 59.2 °F /  15.1 °C 54.3 °F /  12.4 °C 29.98in /  1015.1hPa Calm   4.0mph /  6.4km/h 84% 0.00in /  0mm 0.0 W/m2
06:54 59.2 °F /  15.1 °C 54.3 °F /  12.4 °C 29.98in /  1015.1hPa ESE 0.9mph /  1.4km/h 3.0mph /  4.8km/h 84% 0.00in /  0mm 0.0 W/m2
07:00 59.2 °F /  15.1 °C 54.3 °F /  12.4 °C 29.97in /  1014.8hPa Calm   2.0mph /  3.2km/h 84% 0.00in /  0mm 5.0 W/m2
07:06 59.0 °F /  15 °C 54.1 °F /  12.3 °C 29.97in /  1014.8hPa Calm   3.0mph /  4.8km/h 84% 0.00in /  0mm 7.0 W/m2
07:12 58.8 °F /  14.9 °C 54.0 °F /  12.2 °C 29.98in /  1015.1hPa Calm   2.0mph /  3.2km/h 84% 0.00in /  0mm 11.0 W/m2
07:18 58.8 °F /  14.9 °C 54.3 °F /  12.4 °C 29.98in /  1015.1hPa East 2.0mph /  3.2km/h 3.0mph /  4.8km/h 85% 0.00in /  0mm 14.0 W/m2
07:25 58.8 °F /  14.9 °C 54.3 °F /  12.4 °C 29.98in /  1015.1hPa SE 2.0mph /  3.2km/h 4.0mph /  6.4km/h 85% 0.00in /  0mm 18.0 W/m2
07:31 58.8 °F /  14.9 °C 54.3 °F /  12.4 °C 29.98in /  1015.1hPa Calm   4.0mph /  6.4km/h 85% 0.00in /  0mm 19.0 W/m2
07:37 59.2 °F /  15.1 °C 54.7 °F /  12.6 °C 29.98in /  1015.1hPa ESE 2.0mph /  3.2km/h 3.0mph /  4.8km/h 85% 0.00in /  0mm 25.0 W/m2
07:43 59.4 °F /  15.2 °C 54.9 °F /  12.7 °C 29.98in /  1015.1hPa Calm   5.0mph /  8km/h 85% 0.00in /  0mm 26.0 W/m2
07:49 59.7 °F /  15.4 °C 55.2 °F /  12.9 °C 29.98in /  1015.1hPa ESE 2.0mph /  3.2km/h 4.0mph /  6.4km/h 85% 0.00in /  0mm 30.0 W/m2
07:55 60.1 °F /  15.6 °C 55.2 °F /  12.9 °C 29.98in /  1015.1hPa SE 0.9mph /  1.4km/h 5.0mph /  8km/h 84% 0.00in /  0mm 33.0 W/m2
08:01 60.4 °F /  15.8 °C 55.6 °F /  13.1 °C 29.99in /  1015.5hPa SSE 2.0mph /  3.2km/h 6.0mph /  9.7km/h 84% 0.00in /  0mm 42.0 W/m2
08:08 61.0 °F /  16.1 °C 55.8 °F /  13.2 °C 29.99in /  1015.5hPa NE 4.9mph /  7.9km/h 8.0mph /  12.9km/h 83% 0.00in /  0mm 42.0 W/m2
08:14 61.3 °F /  16.3 °C 55.8 °F /  13.2 °C 29.99in /  1015.5hPa Calm   6.0mph /  9.7km/h 82% 0.00in /  0mm 42.0 W/m2
08:20 61.9 °F /  16.6 °C 55.9 °F /  13.3 °C 29.99in /  1015.5hPa Calm   4.0mph /  6.4km/h 81% 0.00in /  0mm 40.0 W/m2
08:26 62.1 °F /  16.7 °C 55.8 °F /  13.2 °C 29.99in /  1015.5hPa Calm   2.0mph /  3.2km/h 80% 0.00in /  0mm 42.0 W/m2
08:32 62.2 °F /  16.8 °C 55.9 °F /  13.3 °C 29.99in /  1015.5hPa Calm   4.0mph /  6.4km/h 80% 0.00in /  0mm 74.0 W/m2
08:38 62.4 °F /  16.9 °C 55.8 °F /  13.2 °C 29.99in /  1015.5hPa East 0.9mph /  1.4km/h 3.0mph /  4.8km/h 79% 0.00in /  0mm 77.0 W/m2
08:44 62.6 °F /  17 °C 56.3 °F /  13.5 °C 29.99in /  1015.5hPa NE 2.0mph /  3.2km/h 6.0mph /  9.7km/h 80% 0.00in /  0mm 60.0 W/m2
08:50 63.0 °F /  17.2 °C 56.7 °F /  13.7 °C 29.99in /  1015.5hPa SE 2.9mph /  4.7km/h 5.0mph /  8km/h 80% 0.00in /  0mm 95.0 W/m2
08:57 63.3 °F /  17.4 °C 56.7 °F /  13.7 °C 29.99in /  1015.5hPa NE 4.0mph /  6.4km/h 4.0mph /  6.4km/h 79% 0.00in /  0mm 137.0 W/m2
09:03 63.9 °F /  17.7 °C 56.5 °F /  13.6 °C 29.99in /  1015.5hPa Calm   3.0mph /  4.8km/h 77% 0.00in /  0mm 181.0 W/m2
09:09 64.6 °F /  18.1 °C 57.2 °F /  14 °C 29.99in /  1015.5hPa East 2.0mph /  3.2km/h 7.0mph /  11.3km/h 77% 0.00in /  0mm 162.0 W/m2
09:15 65.5 °F /  18.6 °C 57.4 °F /  14.1 °C 29.99in /  1015.5hPa NNE 6.9mph /  11.1km/h 7.0mph /  11.3km/h 75% 0.00in /  0mm 213.0 W/m2
09:21 66.6 °F /  19.2 °C 57.6 °F /  14.2 °C 29.98in /  1015.1hPa NNE 2.9mph /  4.7km/h 4.0mph /  6.4km/h 73% 0.00in /  0mm 188.0 W/m2
09:27 67.1 °F /  19.5 °C 57.4 °F /  14.1 °C 29.99in /  1015.5hPa North 0.9mph /  1.4km/h 4.0mph /  6.4km/h 71% 0.00in /  0mm 220.0 W/m2
09:33 67.6 °F /  19.8 °C 57.0 °F /  13.9 °C 29.98in /  1015.1hPa ESE 2.0mph /  3.2km/h 4.0mph /  6.4km/h 69% 0.00in /  0mm 278.0 W/m2
09:39 68.0 °F /  20 °C 57.4 °F /  14.1 °C 29.98in /  1015.1hPa East 4.9mph /  7.9km/h 8.0mph /  12.9km/h 69% 0.00in /  0mm 241.0 W/m2
09:45 68.2 °F /  20.1 °C 57.2 °F /  14 °C 29.98in /  1015.1hPa North 2.9mph /  4.7km/h 5.0mph /  8km/h 68% 0.00in /  0mm 288.0 W/m2
09:51 68.5 °F /  20.3 °C 57.2 °F /  14 °C 29.98in /  1015.1hPa East 2.9mph /  4.7km/h 6.0mph /  9.7km/h 67% 0.00in /  0mm 269.0 W/m2
09:57 69.3 °F /  20.7 °C 57.0 °F /  13.9 °C 29.97in /  1014.8hPa ESE 4.9mph /  7.9km/h 12.0mph /  19.3km/h 65% 0.00in /  0mm 882.0 W/m2
10:03 70.2 °F /  21.2 °C 57.0 °F /  13.9 °C 29.98in /  1015.1hPa SE 4.0mph /  6.4km/h 6.0mph /  9.7km/h 63% 0.00in /  0mm 294.0 W/m2
10:09 70.7 °F /  21.5 °C 56.7 °F /  13.7 °C 29.98in /  1015.1hPa ESE 4.0mph /  6.4km/h 10.0mph /  16.1km/h 61% 0.00in /  0mm 225.0 W/m2
10:15 71.1 °F /  21.7 °C 56.8 °F /  13.8 °C 29.98in /  1015.1hPa NNE 6.9mph /  11.1km/h 7.0mph /  11.3km/h 61% 0.00in /  0mm 241.0 W/m2
10:21 71.2 °F /  21.8 °C 56.1 °F /  13.4 °C 29.98in /  1015.1hPa NNE 2.0mph /  3.2km/h 9.0mph /  14.5km/h 59% 0.00in /  0mm 248.0 W/m2
10:27 71.8 °F /  22.1 °C 56.1 °F /  13.4 °C 29.97in /  1014.8hPa NE 4.0mph /  6.4km/h 8.0mph /  12.9km/h 58% 0.00in /  0mm 267.0 W/m2
10:33 72.7 °F /  22.6 °C 56.5 °F /  13.6 °C 29.97in /  1014.8hPa North 2.9mph /  4.7km/h 6.0mph /  9.7km/h 57% 0.00in /  0mm 907.0 W/m2
10:39 73.4 °F /  23 °C 56.7 °F /  13.7 °C 29.97in /  1014.8hPa South 0.9mph /  1.4km/h 9.0mph /  14.5km/h 56% 0.00in /  0mm 932.0 W/m2
10:45 73.4 °F /  23 °C 56.7 °F /  13.7 °C 29.97in /  1014.8hPa NE 0.9mph /  1.4km/h 10.0mph /  16.1km/h 56% 0.00in /  0mm 218.0 W/m2
10:51 73.0 °F /  22.8 °C 55.9 °F /  13.3 °C 29.97in /  1014.8hPa NNE 4.9mph /  7.9km/h 7.0mph /  11.3km/h 55% 0.00in /  0mm 220.0 W/m2
10:57 73.6 °F /  23.1 °C 55.9 °F /  13.3 °C 29.96in /  1014.4hPa NE 6.9mph /  11.1km/h 10.0mph /  16.1km/h 54% 0.00in /  0mm 963.0 W/m2
11:04 74.3 °F /  23.5 °C 56.1 °F /  13.4 °C 29.96in /  1014.4hPa ENE 0.9mph /  1.4km/h 7.0mph /  11.3km/h 53% 0.00in /  0mm 230.0 W/m2
11:10 75.0 °F /  23.9 °C 56.1 °F /  13.4 °C 29.96in /  1014.4hPa ENE 4.9mph /  7.9km/h 6.0mph /  9.7km/h 52% 0.00in /  0mm 197.0 W/m2
11:16 75.4 °F /  24.1 °C 56.5 °F /  13.6 °C 29.96in /  1014.4hPa NE 4.0mph /  6.4km/h 9.0mph /  14.5km/h 52% 0.00in /  0mm 265.0 W/m2
11:22 75.4 °F /  24.1 °C 56.5 °F /  13.6 °C 29.96in /  1014.4hPa Calm   7.0mph /  11.3km/h 52% 0.00in /  0mm 239.0 W/m2
11:28 75.0 °F /  23.9 °C 55.6 °F /  13.1 °C 29.96in /  1014.4hPa NE 8.0mph /  12.9km/h 8.0mph /  12.9km/h 51% 0.00in /  0mm 271.0 W/m2
11:34 75.0 °F /  23.9 °C 54.5 °F /  12.5 °C 29.96in /  1014.4hPa North 2.9mph /  4.7km/h 7.0mph /  11.3km/h 49% 0.00in /  0mm 339.0 W/m2
11:40 75.7 °F /  24.3 °C 55.2 °F /  12.9 °C 29.95in /  1014.1hPa North 6.0mph /  9.7km/h 8.0mph /  12.9km/h 49% 0.00in /  0mm 1120.0 W/m2
11:47 76.6 °F /  24.8 °C 54.3 °F /  12.4 °C 29.95in /  1014.1hPa NE 4.0mph /  6.4km/h 9.0mph /  14.5km/h 46% 0.00in /  0mm 237.0 W/m2
11:53 76.3 °F /  24.6 °C 54.0 °F /  12.2 °C 29.95in /  1014.1hPa ENE 6.9mph /  11.1km/h 10.0mph /  16.1km/h 46% 0.00in /  0mm 1111.0 W/m2
11:59 76.5 °F /  24.7 °C 54.1 °F /  12.3 °C 29.94in /  1013.8hPa SE 2.9mph /  4.7km/h 6.0mph /  9.7km/h 46% 0.00in /  0mm 1199.0 W/m2
12:05 77.2 °F /  25.1 °C 53.6 °F /  12 °C 29.94in /  1013.8hPa SE 4.0mph /  6.4km/h 13.0mph /  20.9km/h 44% 0.00in /  0mm 1120.0 W/m2
12:11 78.1 °F /  25.6 °C 52.5 °F /  11.4 °C 29.94in /  1013.8hPa ESE 2.0mph /  3.2km/h 4.0mph /  6.4km/h 41% 0.00in /  0mm 1086.0 W/m2
12:17 78.8 °F /  26 °C 53.8 °F /  12.1 °C 29.94in /  1013.8hPa NNE 8.1mph /  13km/h 10.0mph /  16.1km/h 42% 0.00in /  0mm 1134.0 W/m2
12:23 79.3 °F /  26.3 °C 52.9 °F /  11.6 °C 29.93in /  1013.4hPa ENE 8.9mph /  14.3km/h 10.0mph /  16.1km/h 40% 0.00in /  0mm 1151.0 W/m2
12:30 79.9 °F /  26.6 °C 54.1 °F /  12.3 °C 29.93in /  1013.4hPa North 4.0mph /  6.4km/h 7.0mph /  11.3km/h 41% 0.00in /  0mm 274.0 W/m2
12:36 79.7 °F /  26.5 °C 54.5 °F /  12.5 °C 29.93in /  1013.4hPa ENE 4.0mph /  6.4km/h 8.0mph /  12.9km/h 42% 0.00in /  0mm 1283.0 W/m2
12:42 80.1 °F /  26.7 °C 54.3 °F /  12.4 °C 29.93in /  1013.4hPa ENE 8.9mph /  14.3km/h 9.0mph /  14.5km/h 41% 0.00in /  0mm 1230.0 W/m2
12:48 80.1 °F /  26.7 °C 54.3 °F /  12.4 °C 29.92in /  1013.1hPa East 4.0mph /  6.4km/h 12.0mph /  19.3km/h 41% 0.00in /  0mm 499.0 W/m2
12:54 79.3 °F /  26.3 °C 54.3 °F /  12.4 °C 29.92in /  1013.1hPa ENE 11.0mph /  17.7km/h 11.0mph /  17.7km/h 42% 0.00in /  0mm 1259.0 W/m2
13:00 79.7 °F /  26.5 °C 53.2 °F /  11.8 °C 29.92in /  1013.1hPa NNE 2.9mph /  4.7km/h 9.0mph /  14.5km/h 40% 0.00in /  0mm 921.0 W/m2
13:06 79.5 °F /  26.4 °C 54.5 °F /  12.5 °C 29.92in /  1013.1hPa ENE 0.9mph /  1.4km/h 13.0mph /  20.9km/h 42% 0.00in /  0mm 1352.0 W/m2
13:12 79.2 °F /  26.2 °C 54.7 °F /  12.6 °C 29.91in /  1012.8hPa East 6.9mph /  11.1km/h 11.0mph /  17.7km/h 43% 0.00in /  0mm 482.0 W/m2
13:18 79.2 °F /  26.2 °C 54.7 °F /  12.6 °C 29.91in /  1012.8hPa East 4.0mph /  6.4km/h 12.0mph /  19.3km/h 43% 0.00in /  0mm 540.0 W/m2
13:25 79.2 °F /  26.2 °C 54.1 °F /  12.3 °C 29.91in /  1012.8hPa NE 6.9mph /  11.1km/h 11.0mph /  17.7km/h 42% 0.00in /  0mm 531.0 W/m2
13:31 78.6 °F /  25.9 °C 54.3 °F /  12.4 °C 29.91in /  1012.8hPa NE 6.0mph /  9.7km/h 9.0mph /  14.5km/h 43% 0.00in /  0mm 506.0 W/m2
13:37 77.9 °F /  25.5 °C 54.9 °F /  12.7 °C 29.91in /  1012.8hPa East 4.9mph /  7.9km/h 9.0mph /  14.5km/h 45% 0.00in /  0mm 554.0 W/m2
13:43 77.7 °F /  25.4 °C 54.7 °F /  12.6 °C 29.91in /  1012.8hPa NNE 2.9mph /  4.7km/h 10.0mph /  16.1km/h 45% 0.00in /  0mm 401.0 W/m2
13:49 77.4 °F /  25.2 °C 53.8 °F /  12.1 °C 29.91in /  1012.8hPa ENE 2.9mph /  4.7km/h 7.0mph /  11.3km/h 44% 0.00in /  0mm 462.0 W/m2
13:55 77.2 °F /  25.1 °C 53.6 °F /  12 °C 29.90in /  1012.4hPa NE 4.0mph /  6.4km/h 7.0mph /  11.3km/h 44% 0.00in /  0mm 582.0 W/m2
14:01 77.4 °F /  25.2 °C 53.8 °F /  12.1 °C 29.90in /  1012.4hPa ESE 8.1mph /  13km/h 8.1mph /  13km/h 44% 0.00in /  0mm 552.0 W/m2
14:07 77.5 °F /  25.3 °C 53.2 °F /  11.8 °C 29.89in /  1012.1hPa East 4.9mph /  7.9km/h 9.0mph /  14.5km/h 43% 0.00in /  0mm 585.0 W/m2
14:14 77.5 °F /  25.3 °C 53.2 °F /  11.8 °C 29.89in /  1012.1hPa ESE 0.9mph /  1.4km/h 4.0mph /  6.4km/h 43% 0.00in /  0mm 497.0 W/m2
14:20 77.7 °F /  25.4 °C 53.4 °F /  11.9 °C 29.89in /  1012.1hPa Calm   8.0mph /  12.9km/h 43% 0.00in /  0mm 548.0 W/m2
14:26 77.9 °F /  25.5 °C 53.6 °F /  12 °C 29.88in /  1011.7hPa NE 2.0mph /  3.2km/h 8.0mph /  12.9km/h 43% 0.00in /  0mm 503.0 W/m2
14:32 78.1 °F /  25.6 °C 53.8 °F /  12.1 °C 29.88in /  1011.7hPa East 2.0mph /  3.2km/h 8.0mph /  12.9km/h 43% 0.00in /  0mm 457.0 W/m2
14:38 77.9 °F /  25.5 °C 53.6 °F /  12 °C 29.88in /  1011.7hPa East 0.9mph /  1.4km/h 8.0mph /  12.9km/h 43% 0.00in /  0mm 466.0 W/m2
14:44 77.9 °F /  25.5 °C 53.6 °F /  12 °C 29.88in /  1011.7hPa ENE 2.0mph /  3.2km/h 8.0mph /  12.9km/h 43% 0.00in /  0mm 1315.0 W/m2
14:51 78.4 °F /  25.8 °C 53.4 °F /  11.9 °C 29.88in /  1011.7hPa NNE 2.9mph /  4.7km/h 10.0mph /  16.1km/h 42% 0.00in /  0mm 378.0 W/m2
14:57 78.4 °F /  25.8 °C 53.4 °F /  11.9 °C 29.88in /  1011.7hPa ENE 2.9mph /  4.7km/h 6.0mph /  9.7km/h 42% 0.00in /  0mm 327.0 W/m2
15:03 78.3 °F /  25.7 °C 52.7 °F /  11.5 °C 29.88in /  1011.7hPa ENE 0.9mph /  1.4km/h 9.0mph /  14.5km/h 41% 0.00in /  0mm 1157.0 W/m2
15:09 78.6 °F /  25.9 °C 52.9 °F /  11.6 °C 29.88in /  1011.7hPa Calm   4.0mph /  6.4km/h 41% 0.00in /  0mm 563.0 W/m2
15:15 78.6 °F /  25.9 °C 51.6 °F /  10.9 °C 29.88in /  1011.7hPa ESE 2.0mph /  3.2km/h 8.0mph /  12.9km/h 39% 0.00in /  0mm 202.0 W/m2
15:23 77.5 °F /  25.3 °C 53.2 °F /  11.8 °C 29.87in /  1011.4hPa ESE 4.9mph /  7.9km/h 8.0mph /  12.9km/h 43% 0.00in /  0mm 155.0 W/m2
15:29 76.6 °F /  24.8 °C 53.1 °F /  11.7 °C 29.87in /  1011.4hPa SE 4.0mph /  6.4km/h 8.0mph /  12.9km/h 44% 0.00in /  0mm 165.0 W/m2
15:35 76.1 °F /  24.5 °C 53.2 °F /  11.8 °C 29.87in /  1011.4hPa SSE 2.0mph /  3.2km/h 5.0mph /  8km/h 45% 0.00in /  0mm 199.0 W/m2
15:41 75.9 °F /  24.4 °C 53.6 °F /  12 °C 29.87in /  1011.4hPa SE 2.9mph /  4.7km/h 5.0mph /  8km/h 46% 0.00in /  0mm 202.0 W/m2
15:47 75.7 °F /  24.3 °C 53.4 °F /  11.9 °C 29.87in /  1011.4hPa Calm   5.0mph /  8km/h 46% 0.00in /  0mm 181.0 W/m2
15:54 75.7 °F /  24.3 °C 54.1 °F /  12.3 °C 29.87in /  1011.4hPa East 0.9mph /  1.4km/h 6.0mph /  9.7km/h 47% 0.00in /  0mm 155.0 W/m2
16:00 75.6 °F /  24.2 °C 54.0 °F /  12.2 °C 29.87in /  1011.4hPa North 2.9mph /  4.7km/h 7.0mph /  11.3km/h 47% 0.00in /  0mm 146.0 W/m2
16:06 75.4 °F /  24.1 °C 54.3 °F /  12.4 °C 29.87in /  1011.4hPa NNE 0.9mph /  1.4km/h 6.0mph /  9.7km/h 48% 0.00in /  0mm 146.0 W/m2
16:14 75.0 °F /  23.9 °C 53.4 °F /  11.9 °C 29.87in /  1011.4hPa Calm   5.0mph /  8km/h 47% 0.00in /  0mm 149.0 W/m2
16:20 75.0 °F /  23.9 °C 54.0 °F /  12.2 °C 29.87in /  1011.4hPa NE 4.9mph /  7.9km/h 5.0mph /  8km/h 48% 0.00in /  0mm 162.0 W/m2
16:26 75.0 °F /  23.9 °C 53.4 °F /  11.9 °C 29.87in /  1011.4hPa North 0.9mph /  1.4km/h 4.0mph /  6.4km/h 47% 0.00in /  0mm 174.0 W/m2
16:32 75.0 °F /  23.9 °C 54.0 °F /  12.2 °C 29.87in /  1011.4hPa NNE 0.9mph /  1.4km/h 4.0mph /  6.4km/h 48% 0.00in /  0mm 178.0 W/m2
16:38 75.2 °F /  24 °C 54.1 °F /  12.3 °C 29.87in /  1011.4hPa NNE 0.9mph /  1.4km/h 6.0mph /  9.7km/h 48% 0.00in /  0mm 162.0 W/m2
16:45 75.4 °F /  24.1 °C 53.8 °F /  12.1 °C 29.87in /  1011.4hPa Calm   3.0mph /  4.8km/h 47% 0.00in /  0mm 179.0 W/m2
16:51 75.4 °F /  24.1 °C 53.8 °F /  12.1 °C 29.87in /  1011.4hPa North 2.0mph /  3.2km/h 3.0mph /  4.8km/h 47% 0.00in /  0mm 176.0 W/m2
16:57 75.6 °F /  24.2 °C 54.0 °F /  12.2 °C 29.87in /  1011.4hPa NNE 0.9mph /  1.4km/h 4.0mph /  6.4km/h 47% 0.00in /  0mm 209.0 W/m2
17:03 75.6 °F /  24.2 °C 54.0 °F /  12.2 °C 29.87in /  1011.4hPa NE 2.0mph /  3.2km/h 3.0mph /  4.8km/h 47% 0.00in /  0mm 200.0 W/m2
17:09 75.6 °F /  24.2 °C 54.0 °F /  12.2 °C 29.87in /  1011.4hPa Calm   2.0mph /  3.2km/h 47% 0.00in /  0mm 183.0 W/m2
17:15 75.7 °F /  24.3 °C 54.1 °F /  12.3 °C 29.87in /  1011.4hPa Calm   3.0mph /  4.8km/h 47% 0.00in /  0mm 227.0 W/m2
17:21 75.7 °F /  24.3 °C 53.4 °F /  11.9 °C 29.87in /  1011.4hPa NNW 0.9mph /  1.4km/h 3.0mph /  4.8km/h 46% 0.00in /  0mm 135.0 W/m2
17:27 75.9 °F /  24.4 °C 53.6 °F /  12 °C 29.87in /  1011.4hPa East 0.9mph /  1.4km/h 1.0mph /  1.6km/h 46% 0.00in /  0mm 156.0 W/m2
17:33 76.3 °F /  24.6 °C 53.4 °F /  11.9 °C 29.88in /  1011.7hPa Calm   2.0mph /  3.2km/h 45% 0.00in /  0mm 109.0 W/m2
17:40 76.3 °F /  24.6 °C 54.0 °F /  12.2 °C 29.88in /  1011.7hPa Calm   3.0mph /  4.8km/h 46% 0.00in /  0mm 127.0 W/m2
17:46 76.3 °F /  24.6 °C 53.4 °F /  11.9 °C 29.88in /  1011.7hPa Calm   2.0mph /  3.2km/h 45% 0.00in /  0mm 128.0 W/m2
17:52 76.3 °F /  24.6 °C 54.0 °F /  12.2 °C 29.88in /  1011.7hPa North 2.0mph /  3.2km/h 2.0mph /  3.2km/h 46% 0.00in /  0mm 98.0 W/m2
17:58 76.3 °F /  24.6 °C 53.4 °F /  11.9 °C 29.88in /  1011.7hPa Calm   1.0mph /  1.6km/h 45% 0.00in /  0mm 72.0 W/m2
18:04 75.9 °F /  24.4 °C 53.6 °F /  12 °C 29.88in /  1011.7hPa NNW 2.9mph /  4.7km/h 5.0mph /  8km/h 46% 0.00in /  0mm 51.0 W/m2
18:10 75.6 °F /  24.2 °C 52.7 °F /  11.5 °C 29.88in /  1011.7hPa NNW 2.0mph /  3.2km/h 6.0mph /  9.7km/h 45% 0.00in /  0mm 39.0 W/m2
18:16 75.2 °F /  24 °C 53.1 °F /  11.7 °C 29.88in /  1011.7hPa NE 2.0mph /  3.2km/h 3.0mph /  4.8km/h 46% 0.00in /  0mm 32.0 W/m2
18:22 74.8 °F /  23.8 °C 53.2 °F /  11.8 °C 29.88in /  1011.7hPa Calm   4.0mph /  6.4km/h 47% 0.00in /  0mm 23.0 W/m2
18:28 74.7 °F /  23.7 °C 53.6 °F /  12 °C 29.88in /  1011.7hPa Calm   1.0mph /  1.6km/h 48% 0.00in /  0mm 19.0 W/m2
18:35 74.7 °F /  23.7 °C 53.6 °F /  12 °C 29.88in /  1011.7hPa Calm   1.0mph /  1.6km/h 48% 0.00in /  0mm 16.0 W/m2
18:43 74.3 °F /  23.5 °C 54.0 °F /  12.2 °C 29.88in /  1011.7hPa Calm   1.0mph /  1.6km/h 49% 0.00in /  0mm 11.0 W/m2
18:49 74.1 °F /  23.4 °C 53.2 °F /  11.8 °C 29.88in /  1011.7hPa NE 0.9mph /  1.4km/h 1.0mph /  1.6km/h 48% 0.00in /  0mm 7.0 W/m2
18:55 73.8 °F /  23.2 °C 52.9 °F /  11.6 °C 29.89in /  1012.1hPa Calm   1.0mph /  1.6km/h 48% 0.00in /  0mm 0.0 W/m2
19:01 73.6 °F /  23.1 °C 53.2 °F /  11.8 °C 29.89in /  1012.1hPa Calm   2.0mph /  3.2km/h 49% 0.00in /  0mm 0.0 W/m2
19:07 73.6 °F /  23.1 °C 53.8 °F /  12.1 °C 29.89in /  1012.1hPa Calm   1.0mph /  1.6km/h 50% 0.00in /  0mm 0.0 W/m2
19:13 73.2 °F /  22.9 °C 53.4 °F /  11.9 °C 29.89in /  1012.1hPa Calm     50% 0.00in /  0mm 0.0 W/m2
19:19 73.0 °F /  22.8 °C 53.8 °F /  12.1 °C 29.89in /  1012.1hPa Calm   2.0mph /  3.2km/h 51% 0.00in /  0mm 0.0 W/m2
19:26 72.9 °F /  22.7 °C 54.1 °F /  12.3 °C 29.89in /  1012.1hPa Calm   1.0mph /  1.6km/h 52% 0.00in /  0mm 0.0 W/m2
19:32 72.7 °F /  22.6 °C 54.5 °F /  12.5 °C 29.89in /  1012.1hPa Calm   1.0mph /  1.6km/h 53% 0.00in /  0mm 0.0 W/m2
19:38 72.5 °F /  22.5 °C 54.9 °F /  12.7 °C 29.90in /  1012.4hPa Calm     54% 0.00in /  0mm 0.0 W/m2
19:44 72.3 °F /  22.4 °C 54.1 °F /  12.3 °C 29.90in /  1012.4hPa ESE 2.0mph /  3.2km/h 2.0mph /  3.2km/h 53% 0.00in /  0mm 0.0 W/m2
19:50 72.0 °F /  22.2 °C 54.0 °F /  12.2 °C 29.90in /  1012.4hPa Calm   5.0mph /  8km/h 53% 0.00in /  0mm 0.0 W/m2
19:56 71.8 °F /  22.1 °C 53.8 °F /  12.1 °C 29.91in /  1012.8hPa Calm   2.0mph /  3.2km/h 53% 0.00in /  0mm 0.0 W/m2
20:02 71.6 °F /  22 °C 53.6 °F /  12 °C 29.91in /  1012.8hPa ENE 0.9mph /  1.4km/h 1.0mph /  1.6km/h 53% 0.00in /  0mm 0.0 W/m2
20:09 71.4 °F /  21.9 °C 54.0 °F /  12.2 °C 29.91in /  1012.8hPa Calm   1.0mph /  1.6km/h 54% 0.00in /  0mm 0.0 W/m2
20:15 71.2 °F /  21.8 °C 53.8 °F /  12.1 °C 29.91in /  1012.8hPa Calm   1.0mph /  1.6km/h 54% 0.00in /  0mm 0.0 W/m2
20:21 71.1 °F /  21.7 °C 53.6 °F /  12 °C 29.91in /  1012.8hPa Calm   1.0mph /  1.6km/h 54% 0.00in /  0mm 0.0 W/m2
20:27 71.1 °F /  21.7 °C 53.1 °F /  11.7 °C 29.91in /  1012.8hPa ESE 0.9mph /  1.4km/h 1.0mph /  1.6km/h 53% 0.00in /  0mm 0.0 W/m2
20:33 70.9 °F /  21.6 °C 52.9 °F /  11.6 °C 29.91in /  1012.8hPa Calm   2.0mph /  3.2km/h 53% 0.00in /  0mm 0.0 W/m2
20:39 70.9 °F /  21.6 °C 53.4 °F /  11.9 °C 29.91in /  1012.8hPa Calm   1.0mph /  1.6km/h 54% 0.00in /  0mm 0.0 W/m2
20:45 70.7 °F /  21.5 °C 53.2 °F /  11.8 °C 29.91in /  1012.8hPa Calm   1.0mph /  1.6km/h 54% 0.00in /  0mm 0.0 W/m2
20:52 70.5 °F /  21.4 °C 53.1 °F /  11.7 °C 29.91in /  1012.8hPa Calm     54% 0.00in /  0mm 0.0 W/m2
20:58 70.5 °F /  21.4 °C 53.6 °F /  12 °C 29.91in /  1012.8hPa Calm   1.0mph /  1.6km/h 55% 0.00in /  0mm 0.0 W/m2
21:04 70.3 °F /  21.3 °C 53.4 °F /  11.9 °C 29.91in /  1012.8hPa Calm     55% 0.00in /  0mm 0.0 W/m2
21:10 70.3 °F /  21.3 °C 54.0 °F /  12.2 °C 29.92in /  1013.1hPa ENE 0.9mph /  1.4km/h 1.0mph /  1.6km/h 56% 0.00in /  0mm 0.0 W/m2
21:16 70.2 °F /  21.2 °C 53.8 °F /  12.1 °C 29.92in /  1013.1hPa Calm   1.0mph /  1.6km/h 56% 0.00in /  0mm 0.0 W/m2
21:22 70.0 °F /  21.1 °C 54.0 °F /  12.2 °C 29.92in /  1013.1hPa Calm   1.0mph /  1.6km/h 57% 0.00in /  0mm 0.0 W/m2
21:28 69.8 °F /  21 °C 54.0 °F /  12.2 °C 29.92in /  1013.1hPa Calm   1.0mph /  1.6km/h 57% 0.00in /  0mm 0.0 W/m2
21:34 69.6 °F /  20.9 °C 54.1 °F /  12.3 °C 29.92in /  1013.1hPa Calm   1.0mph /  1.6km/h 58% 0.00in /  0mm 0.0 W/m2
21:41 69.4 °F /  20.8 °C 54.0 °F /  12.2 °C 29.92in /  1013.1hPa Calm   1.0mph /  1.6km/h 58% 0.00in /  0mm 0.0 W/m2
21:47 69.3 °F /  20.7 °C 53.8 °F /  12.1 °C 29.92in /  1013.1hPa Calm   2.0mph /  3.2km/h 58% 0.00in /  0mm 0.0 W/m2
21:53 69.3 °F /  20.7 °C 53.8 °F /  12.1 °C 29.92in /  1013.1hPa Calm   3.0mph /  4.8km/h 58% 0.00in /  0mm 0.0 W/m2
21:59 69.1 °F /  20.6 °C 53.6 °F /  12 °C 29.92in /  1013.1hPa Calm   2.0mph /  3.2km/h 58% 0.00in /  0mm 0.0 W/m2
22:05 69.1 °F /  20.6 °C 54.1 °F /  12.3 °C 29.92in /  1013.1hPa Calm   1.0mph /  1.6km/h 59% 0.00in /  0mm 0.0 W/m2
22:11 68.9 °F /  20.5 °C 54.0 °F /  12.2 °C 29.92in /  1013.1hPa Calm   2.0mph /  3.2km/h 59% 0.00in /  0mm 0.0 W/m2
22:17 68.7 °F /  20.4 °C 54.3 °F /  12.4 °C 29.92in /  1013.1hPa Calm   1.0mph /  1.6km/h 60% 0.00in /  0mm 0.0 W/m2
22:24 68.5 °F /  20.3 °C 54.1 °F /  12.3 °C 29.92in /  1013.1hPa Calm     60% 0.00in /  0mm 0.0 W/m2
22:30 68.4 °F /  20.2 °C 54.3 °F /  12.4 °C 29.92in /  1013.1hPa Calm   1.0mph /  1.6km/h 61% 0.00in /  0mm 0.0 W/m2
22:36 68.2 °F /  20.1 °C 54.7 °F /  12.6 °C 29.92in /  1013.1hPa Calm     62% 0.00in /  0mm 0.0 W/m2
22:42 67.8 °F /  19.9 °C 54.3 °F /  12.4 °C 29.92in /  1013.1hPa NE 0.9mph /  1.4km/h 2.0mph /  3.2km/h 62% 0.00in /  0mm 0.0 W/m2
22:48 67.6 °F /  19.8 °C 54.7 °F /  12.6 °C 29.92in /  1013.1hPa Calm   1.0mph /  1.6km/h 63% 0.00in /  0mm 0.0 W/m2
22:54 67.5 °F /  19.7 °C 54.5 °F /  12.5 °C 29.92in /  1013.1hPa East 2.0mph /  3.2km/h 2.0mph /  3.2km/h 63% 0.00in /  0mm 0.0 W/m2
23:00 67.3 °F /  19.6 °C 54.7 °F /  12.6 °C 29.92in /  1013.1hPa Calm   1.0mph /  1.6km/h 64% 0.00in /  0mm 0.0 W/m2
23:07 67.3 °F /  19.6 °C 54.3 °F /  12.4 °C 29.92in /  1013.1hPa Calm     63% 0.00in /  0mm 0.0 W/m2
23:13 67.1 °F /  19.5 °C 54.1 °F /  12.3 °C 29.92in /  1013.1hPa Calm     63% 0.00in /  0mm 0.0 W/m2
23:21 66.9 °F /  19.4 °C 54.3 °F /  12.4 °C 29.92in /  1013.1hPa Calm   2.0mph /  3.2km/h 64% 0.00in /  0mm 0.0 W/m2
23:27 66.7 °F /  19.3 °C 54.1 °F /  12.3 °C 29.92in /  1013.1hPa Calm   3.0mph /  4.8km/h 64% 0.00in /  0mm 0.0 W/m2
23:33 66.6 °F /  19.2 °C 54.5 °F /  12.5 °C 29.92in /  1013.1hPa Calm   1.0mph /  1.6km/h 65% 0.00in /  0mm 0.0 W/m2
23:39 66.6 °F /  19.2 °C 54.5 °F /  12.5 °C 29.92in /  1013.1hPa Calm   2.0mph /  3.2km/h 65% 0.00in /  0mm 0.0 W/m2
23:45 66.4 °F /  19.1 °C 54.3 °F /  12.4 °C 29.92in /  1013.1hPa Calm   3.0mph /  4.8km/h 65% 0.00in /  0mm 0.0 W/m2
23:51 66.4 °F /  19.1 °C 53.8 °F /  12.1 °C 29.92in /  1013.1hPa Calm   2.0mph /  3.2km/h 64% 0.00in /  0mm 0.0 W/m2
23:57 66.4 °F /  19.1 °C 53.4 °F /  11.9 °C 29.92in /  1013.1hPa Calm   3.0mph /  4.8km/h 63% 0.00in /  0mm 0.0 W/m2
Olympia, Windhoek, Namibia
Compliments of Weather Underground - 3 mb